createdAt,value
2023-03-28T00:02:36.440Z,102505.38
2023-03-28T00:05:24.228Z,102506.78
2023-03-28T00:08:12.227Z,102504.00
2023-03-28T00:11:21.212Z,102508.00
2023-03-28T00:14:08.690Z,102505.91
2023-03-28T00:16:57.433Z,102508.31
2023-03-28T00:19:47.005Z,102506.38
2023-03-28T00:22:34.433Z,102503.63
2023-03-28T00:25:21.858Z,102506.13
2023-03-28T00:28:09.828Z,102498.91
2023-03-28T00:31:05.151Z,102500.50
2023-03-28T00:33:53.358Z,102503.72
2023-03-28T00:36:41.748Z,102507.00
2023-03-28T00:39:31.564Z,102499.03
2023-03-28T00:42:22.469Z,102498.94
2023-03-28T00:45:12.059Z,102499.50
2023-03-28T00:48:14.771Z,102499.41
2023-03-28T00:51:03.755Z,102503.72
2023-03-28T00:53:52.532Z,102500.13
2023-03-28T00:56:44.964Z,102502.63
2023-03-28T00:59:36.407Z,102513.09
2023-03-28T01:02:23.847Z,102507.91
2023-03-28T01:05:13.681Z,102512.28
2023-03-28T01:08:14.968Z,102504.59
2023-03-28T01:10:43.693Z,102501.13
2023-03-28T01:13:13.318Z,102500.22
2023-03-28T01:15:41.946Z,102506.19
2023-03-28T01:18:13.507Z,102505.22
2023-03-28T01:21:13.713Z,102507.00
2023-03-28T01:24:23.231Z,102506.09
2023-03-28T01:27:26.915Z,102494.72
2023-03-28T01:30:15.418Z,102501.59
2023-03-28T01:33:50.765Z,102504.19
2023-03-28T01:36:36.516Z,102491.84
2023-03-28T01:39:36.343Z,102499.53
2023-03-28T01:42:31.273Z,102486.25
2023-03-28T01:45:22.203Z,102495.72
2023-03-28T01:48:44.121Z,102482.66
2023-03-28T01:51:32.158Z,102485.06
2023-03-28T01:54:26.231Z,102484.84
2023-03-28T01:57:31.612Z,102486.53
2023-03-28T02:00:24.457Z,102485.44
2023-03-28T02:03:00.837Z,102486.25
2023-03-28T02:05:32.267Z,102482.63
2023-03-28T02:08:02.904Z,102483.44
2023-03-28T02:10:32.953Z,102486.03
2023-03-28T02:13:07.750Z,102484.22
2023-03-28T02:15:34.948Z,102485.13
2023-03-28T02:18:09.805Z,102483.34
2023-03-28T02:20:38.266Z,102479.84
2023-03-28T02:23:15.794Z,102488.50
2023-03-28T02:25:43.105Z,102478.06
2023-03-28T02:28:12.760Z,102477.16
2023-03-28T02:30:40.317Z,102477.06
2023-03-28T02:33:32.418Z,102474.34
2023-03-28T02:36:36.895Z,102473.25
2023-03-28T02:39:34.427Z,102479.13
2023-03-28T02:42:28.112Z,102471.13
2023-03-28T02:45:50.759Z,102468.25
2023-03-28T02:48:33.801Z,102475.03
2023-03-28T02:51:25.756Z,102471.41
2023-03-28T02:54:34.581Z,102472.31
2023-03-28T02:57:10.532Z,102475.69
2023-03-28T03:00:13.717Z,102464.34
2023-03-28T03:02:44.338Z,102465.06
2023-03-28T03:05:12.009Z,102461.56
2023-03-28T03:07:39.331Z,102464.91
2023-03-28T03:10:10.759Z,102459.75
2023-03-28T03:12:38.281Z,102468.44
2023-03-28T03:15:07.280Z,102453.47
2023-03-28T03:17:34.409Z,102464.72
2023-03-28T03:20:02.519Z,102464.63
2023-03-28T03:22:29.538Z,102460.03
2023-03-28T03:24:57.660Z,102471.31
2023-03-28T03:27:24.707Z,102469.47
2023-03-28T03:29:52.002Z,102471.16
2023-03-28T03:32:19.104Z,102468.47
2023-03-28T03:34:46.142Z,102469.28
2023-03-28T03:37:14.754Z,102472.66
2023-03-28T03:39:42.094Z,102474.47
2023-03-28T03:42:09.208Z,102480.53
2023-03-28T03:44:36.423Z,102477.94
2023-03-28T03:47:04.410Z,102465.69
2023-03-28T03:49:31.653Z,102469.09
2023-03-28T03:51:58.819Z,102468.19
2023-03-28T03:54:26.321Z,102466.38
2023-03-28T03:56:53.445Z,102467.28
2023-03-28T03:59:20.900Z,102467.16
2023-03-28T04:01:47.957Z,102470.53
2023-03-28T04:04:15.293Z,102468.66
2023-03-28T04:06:42.391Z,102467.06
2023-03-28T04:09:09.483Z,102468.56
2023-03-28T04:11:37.704Z,102458.19
2023-03-28T04:14:05.003Z,102459.78
2023-03-28T04:16:40.409Z,102470.25
2023-03-28T04:19:10.848Z,102471.81
2023-03-28T04:21:42.804Z,102473.41
2023-03-28T04:24:09.960Z,102469.91
2023-03-28T04:26:38.053Z,102462.94
2023-03-28T04:29:05.966Z,102459.47
2023-03-28T04:31:36.253Z,102465.44
2023-03-28T04:34:05.897Z,102460.03
2023-03-28T04:36:33.661Z,102464.31
2023-03-28T04:39:02.858Z,102463.31
2023-03-28T04:41:33.219Z,102458.03
2023-03-28T04:44:01.248Z,102459.72
2023-03-28T04:46:31.646Z,102457.03
2023-03-28T04:48:58.750Z,102457.84
2023-03-28T04:51:28.575Z,102461.97
2023-03-28T04:53:55.668Z,102455.72
2023-03-28T04:56:23.438Z,102467.75
2023-03-28T04:58:50.464Z,102462.38
2023-03-28T05:01:17.934Z,102461.44
2023-03-28T05:03:45.194Z,102458.75
2023-03-28T05:06:12.323Z,102474.28
2023-03-28T05:08:39.388Z,102471.59
2023-03-28T05:11:06.917Z,102476.78
2023-03-28T05:13:34.873Z,102477.66
2023-03-28T05:16:02.002Z,102476.88
2023-03-28T05:18:29.054Z,102476.22
2023-03-28T05:20:56.124Z,102482.38
2023-03-28T05:23:23.213Z,102471.13
2023-03-28T05:25:54.597Z,102476.41
2023-03-28T05:28:25.282Z,102475.63
2023-03-28T05:30:52.483Z,102480.09
2023-03-28T05:33:19.594Z,102488.91
2023-03-28T05:35:47.122Z,102482.13
2023-03-28T05:38:14.595Z,102484.00
2023-03-28T05:40:41.554Z,102486.84
2023-03-28T05:43:08.636Z,102485.25
2023-03-28T05:45:35.836Z,102483.56
2023-03-28T05:48:03.613Z,102494.22
2023-03-28T05:50:33.423Z,102488.47
2023-03-28T05:53:00.929Z,102494.84
2023-03-28T05:55:28.295Z,102496.16
2023-03-28T05:57:56.020Z,102481.94
2023-03-28T06:00:23.618Z,102476.41
2023-03-28T06:02:51.894Z,102481.31
2023-03-28T06:05:19.679Z,102482.81
2023-03-28T06:07:46.966Z,102474.75
2023-03-28T06:10:15.855Z,102478.84
2023-03-28T06:12:43.156Z,102483.75
2023-03-28T06:15:11.118Z,102474.78
2023-03-28T06:17:38.686Z,102481.47
2023-03-28T06:20:07.337Z,102479.50
2023-03-28T06:22:34.565Z,102484.47
2023-03-28T06:25:01.642Z,102487.56
2023-03-28T06:27:29.739Z,102483.75
2023-03-28T06:29:56.927Z,102491.41
2023-03-28T06:32:24.023Z,102487.63
2023-03-28T06:34:51.416Z,102490.59
2023-03-28T06:37:18.504Z,102494.28
2023-03-28T06:39:45.662Z,102504.16
2023-03-28T06:42:12.749Z,102507.00
2023-03-28T06:44:39.925Z,102485.75
2023-03-28T06:47:06.970Z,102497.59
2023-03-28T06:49:34.128Z,102487.59
2023-03-28T06:52:01.349Z,102487.25
2023-03-28T06:54:28.551Z,102497.50
2023-03-28T06:56:55.766Z,102497.97
2023-03-28T06:59:22.966Z,102495.03
2023-03-28T07:01:50.321Z,102493.88
2023-03-28T07:04:17.423Z,102499.72
2023-03-28T07:06:44.576Z,102495.97
2023-03-28T07:09:11.639Z,102499.81
2023-03-28T07:11:38.844Z,102507.25
2023-03-28T07:14:06.029Z,102509.59
2023-03-28T07:16:33.514Z,102511.91
2023-03-28T07:19:00.615Z,102516.81
2023-03-28T07:21:27.938Z,102511.25
2023-03-28T07:23:55.092Z,102505.66
2023-03-28T07:26:24.710Z,102522.06
2023-03-28T07:28:55.233Z,102520.16
2023-03-28T07:31:22.602Z,102508.97
2023-03-28T07:33:50.344Z,102522.34
2023-03-28T07:36:21.747Z,102522.69
2023-03-28T07:38:49.577Z,102522.63
2023-03-28T07:41:17.506Z,102520.72
2023-03-28T07:43:45.265Z,102527.47
2023-03-28T07:46:15.024Z,102526.38
2023-03-28T07:48:43.132Z,102524.50
2023-03-28T07:51:11.381Z,102521.59
2023-03-28T07:53:39.080Z,102524.91
2023-03-28T07:56:12.300Z,102520.44
2023-03-28T07:58:41.454Z,102522.09
2023-03-28T08:01:12.771Z,102527.16
2023-03-28T08:03:42.258Z,102525.28
2023-03-28T08:06:24.371Z,102530.47
2023-03-28T08:08:58.183Z,102516.88
2023-03-28T08:11:27.353Z,102518.81
2023-03-28T08:13:54.483Z,102524.22
2023-03-28T08:16:22.353Z,102525.06
2023-03-28T08:18:57.011Z,102521.16
2023-03-28T08:21:35.305Z,102528.66
2023-03-28T08:24:06.880Z,102524.03
2023-03-28T08:26:39.145Z,102525.59
2023-03-28T08:29:06.703Z,102515.78
2023-03-28T08:31:33.926Z,102511.97
2023-03-28T08:34:01.210Z,102515.09
2023-03-28T08:36:28.647Z,102511.13
2023-03-28T08:39:00.711Z,102510.53
2023-03-28T08:41:47.195Z,102517.94
2023-03-28T08:44:42.744Z,102514.75
2023-03-28T08:47:26.311Z,102510.78
2023-03-28T08:50:02.197Z,102513.88
2023-03-28T08:52:30.178Z,102511.88
2023-03-28T08:55:11.595Z,102512.41
2023-03-28T08:57:42.458Z,102513.38
2023-03-28T09:00:39.347Z,102510.97
2023-03-28T09:03:14.594Z,102506.88
2023-03-28T09:06:06.656Z,102515.13
2023-03-28T09:08:45.369Z,102506.59
2023-03-28T09:11:49.820Z,102510.50
2023-03-28T09:14:41.908Z,102513.50
2023-03-28T09:17:25.850Z,102512.22
2023-03-28T09:20:12.113Z,102508.03
2023-03-28T09:23:06.292Z,102507.59
2023-03-28T09:25:54.927Z,102509.47
2023-03-28T09:28:59.532Z,102506.19
2023-03-28T09:31:44.213Z,102502.06
2023-03-28T09:34:20.986Z,102510.16
2023-03-28T09:36:54.008Z,102507.66
2023-03-28T09:39:45.693Z,102502.50
2023-03-28T09:42:45.032Z,102497.41
2023-03-28T09:45:36.213Z,102503.66
2023-03-28T09:48:08.918Z,102492.63
2023-03-28T09:50:36.328Z,102497.34
2023-03-28T09:53:03.813Z,102496.00
2023-03-28T09:55:31.846Z,102489.31
2023-03-28T09:58:03.117Z,102480.97
2023-03-28T10:00:47.999Z,102474.94
2023-03-28T10:03:29.166Z,102475.94
2023-03-28T10:06:01.328Z,102475.94
2023-03-28T10:08:40.794Z,102474.28
2023-03-28T10:11:17.334Z,102468.13
2023-03-28T10:13:51.682Z,102465.56
2023-03-28T10:16:32.309Z,102454.28
2023-03-28T10:18:59.690Z,102450.09
2023-03-28T10:21:31.527Z,102451.22
2023-03-28T10:24:09.757Z,102443.53
2023-03-28T10:26:37.120Z,102442.03
2023-03-28T10:29:08.693Z,102443.97
2023-03-28T10:31:37.861Z,102440.59
2023-03-28T10:34:05.003Z,102441.53
2023-03-28T10:36:43.639Z,102437.13
2023-03-28T10:39:35.741Z,102438.19
2023-03-28T10:42:04.063Z,102422.41
2023-03-28T10:44:36.807Z,102426.00
2023-03-28T10:47:14.968Z,102429.28
2023-03-28T10:49:55.257Z,102417.25
2023-03-28T10:52:54.435Z,102425.75
2023-03-28T10:55:36.316Z,102414.97
2023-03-28T10:58:31.364Z,102413.19
2023-03-28T11:01:07.699Z,102420.03
2023-03-28T11:04:02.621Z,102401.44
2023-03-28T11:06:56.813Z,102409.84
2023-03-28T11:09:42.716Z,102388.56
2023-03-28T11:12:51.143Z,102383.25
2023-03-28T11:15:47.185Z,102380.91
2023-03-28T11:18:42.752Z,102370.66
2023-03-28T11:21:31.744Z,102358.59
2023-03-28T11:24:23.393Z,102359.66
2023-03-28T11:27:22.247Z,102358.19
2023-03-28T11:30:06.935Z,102352.31
2023-03-28T11:32:58.784Z,102330.63
2023-03-28T11:36:07.937Z,102332.44
2023-03-28T11:38:42.719Z,102331.63
2023-03-28T11:41:21.969Z,102328.19
2023-03-28T11:44:13.812Z,102319.50
2023-03-28T11:46:51.097Z,102311.31
2023-03-28T11:49:33.588Z,102306.41
2023-03-28T11:52:20.425Z,102299.94
2023-03-28T11:55:14.544Z,102293.63
2023-03-28T11:58:09.115Z,102287.72
2023-03-28T12:00:47.310Z,102286.59
2023-03-28T12:03:37.417Z,102287.50
2023-03-28T12:06:33.695Z,102284.84
2023-03-28T12:09:16.376Z,102269.66
2023-03-28T12:12:04.955Z,102263.13
2023-03-28T12:14:43.452Z,102266.09
2023-03-28T12:17:36.565Z,102268.13
2023-03-28T12:20:13.543Z,102245.44
2023-03-28T12:22:45.864Z,102238.59
2023-03-28T12:25:31.309Z,102227.25
2023-03-28T12:28:37.394Z,102230.91
2023-03-28T12:31:18.130Z,102222.13
2023-03-28T12:34:35.129Z,102216.88
2023-03-28T12:37:25.065Z,102210.75
2023-03-28T12:40:03.049Z,102216.09
2023-03-28T12:42:30.610Z,102213.47
2023-03-28T12:45:06.808Z,102211.69
2023-03-28T12:47:44.460Z,102225.81
2023-03-28T12:50:56.357Z,102228.44
2023-03-28T12:53:24.514Z,102202.75
2023-03-28T12:55:52.764Z,102206.34
2023-03-28T12:58:26.550Z,102195.78
2023-03-28T13:01:50.613Z,102195.75
2023-03-28T13:04:29.909Z,102192.19
2023-03-28T13:07:44.709Z,102199.31
2023-03-28T13:10:38.220Z,102200.25
2023-03-28T13:14:03.868Z,102196.84
2023-03-28T13:16:52.747Z,102190.72
2023-03-28T13:19:20.771Z,102192.44
2023-03-28T13:22:00.016Z,102188.88
2023-03-28T13:24:26.907Z,102176.50
2023-03-28T13:26:58.433Z,102172.97
2023-03-28T13:29:45.812Z,102163.34
2023-03-28T13:32:23.330Z,102152.69
2023-03-28T13:34:56.775Z,102158.81
2023-03-28T13:37:43.317Z,102150.00
2023-03-28T13:40:51.512Z,102155.25
2023-03-28T13:43:46.624Z,102148.13
2023-03-28T13:46:24.390Z,102140.06
2023-03-28T13:48:54.468Z,102132.94
2023-03-28T13:51:30.884Z,102138.19
2023-03-28T13:53:58.182Z,102132.78
2023-03-28T13:56:35.298Z,102130.97
2023-03-28T13:59:13.252Z,102123.03
2023-03-28T14:02:14.303Z,102123.03
2023-03-28T14:04:49.522Z,102115.88
2023-03-28T14:07:22.819Z,102106.22
2023-03-28T14:09:51.206Z,102097.44
2023-03-28T14:12:20.034Z,102098.31
2023-03-28T14:14:54.485Z,102092.06
2023-03-28T14:17:32.881Z,102086.78
2023-03-28T14:20:05.645Z,102081.47
2023-03-28T14:22:45.727Z,102083.19
2023-03-28T14:25:16.659Z,102086.66
2023-03-28T14:27:53.542Z,102082.25
2023-03-28T14:30:37.540Z,102069.97
2023-03-28T14:33:20.276Z,102062.97
2023-03-28T14:36:05.963Z,102060.41
2023-03-28T14:38:38.569Z,102054.22
2023-03-28T14:41:21.554Z,102049.84
2023-03-28T14:43:55.903Z,102041.91
2023-03-28T14:46:27.559Z,102027.81
2023-03-28T14:48:59.036Z,102019.88
2023-03-28T14:51:26.615Z,102023.34
2023-03-28T14:53:53.996Z,102014.41
2023-03-28T14:56:27.986Z,102010.81
2023-03-28T14:59:01.247Z,102006.38
2023-03-28T15:01:32.106Z,102003.72
2023-03-28T15:04:06.096Z,101996.63
2023-03-28T15:06:35.385Z,101987.81
2023-03-28T15:09:25.631Z,101979.00
2023-03-28T15:11:53.191Z,101972.75
2023-03-28T15:14:45.235Z,101968.31
2023-03-28T15:17:20.085Z,101970.06
2023-03-28T15:19:52.981Z,101969.19
2023-03-28T15:22:27.151Z,101962.13
2023-03-28T15:24:57.503Z,101952.41
2023-03-28T15:27:33.642Z,101947.09
2023-03-28T15:30:15.694Z,101939.16
2023-03-28T15:32:43.532Z,101936.47
2023-03-28T15:35:43.579Z,101940.88
2023-03-28T15:38:13.647Z,101937.28
2023-03-28T15:41:07.327Z,101935.47
2023-03-28T15:44:00.965Z,101929.09
2023-03-28T15:46:33.298Z,101929.72
2023-03-28T15:49:04.041Z,101922.50
2023-03-28T15:51:32.262Z,101920.50
2023-03-28T15:54:00.395Z,101916.84
2023-03-28T15:56:32.023Z,101917.63
2023-03-28T15:59:10.677Z,101915.72
2023-03-28T16:01:38.079Z,101913.00
2023-03-28T16:04:16.061Z,101905.88
2023-03-28T16:06:45.655Z,101904.81
2023-03-28T16:09:17.792Z,101909.13
2023-03-28T16:11:49.392Z,101907.31
2023-03-28T16:14:21.345Z,101902.81
2023-03-28T16:16:56.900Z,101897.44
2023-03-28T16:19:28.345Z,101898.19
2023-03-28T16:22:00.456Z,101888.50
2023-03-28T16:24:28.290Z,101884.00
2023-03-28T16:26:55.580Z,101883.00
2023-03-28T16:29:23.367Z,101871.47
2023-03-28T16:31:55.490Z,101888.00
2023-03-28T16:34:23.774Z,101885.25
2023-03-28T16:36:56.084Z,101877.31
2023-03-28T16:39:23.749Z,101879.84
2023-03-28T16:41:51.272Z,101875.41
2023-03-28T16:44:18.723Z,101878.94
2023-03-28T16:46:45.997Z,101881.50
2023-03-28T16:49:13.216Z,101878.81
2023-03-28T16:51:40.687Z,101877.94
2023-03-28T16:54:10.110Z,101877.94
2023-03-28T16:56:38.041Z,101872.63
2023-03-28T16:59:07.765Z,101873.34
2023-03-28T17:01:35.038Z,101874.09
2023-03-28T17:04:03.134Z,101871.28
2023-03-28T17:06:30.922Z,101867.72
2023-03-28T17:08:58.908Z,101870.22
2023-03-28T17:11:27.087Z,101868.41
2023-03-28T17:13:55.377Z,101870.03
2023-03-28T17:16:23.974Z,101872.59
2023-03-28T17:18:51.319Z,101872.44
2023-03-28T17:21:18.809Z,101864.41
2023-03-28T17:23:48.795Z,101872.16
2023-03-28T17:26:17.207Z,101865.84
2023-03-28T17:28:44.804Z,101856.81
2023-03-28T17:31:19.606Z,101853.19
2023-03-28T17:33:48.376Z,101854.75
2023-03-28T17:36:25.978Z,101858.16
2023-03-28T17:38:55.944Z,101844.91
2023-03-28T17:41:24.709Z,101845.53
2023-03-28T17:43:54.057Z,101845.31
2023-03-28T17:46:21.879Z,101839.88
2023-03-28T17:48:49.598Z,101838.78
2023-03-28T17:51:17.492Z,101834.22
2023-03-28T17:53:47.099Z,101836.72
2023-03-28T17:56:16.348Z,101844.38
2023-03-28T17:58:44.909Z,101831.13
2023-03-28T18:01:15.288Z,101823.88
2023-03-28T18:03:44.377Z,101816.75
2023-03-28T18:06:13.094Z,101816.56
2023-03-28T18:08:41.213Z,101819.06
2023-03-28T18:11:14.145Z,101833.84
2023-03-28T18:13:41.622Z,101828.50
2023-03-28T18:16:13.420Z,101824.91
2023-03-28T18:18:41.627Z,101828.34
2023-03-28T18:21:11.248Z,101835.38
2023-03-28T18:23:38.703Z,101836.25
2023-03-28T18:26:06.829Z,101832.63
2023-03-28T18:28:36.390Z,101831.66
2023-03-28T18:31:28.304Z,101830.81
2023-03-28T18:33:57.479Z,101831.66
2023-03-28T18:36:25.120Z,101840.41
2023-03-28T18:38:53.136Z,101821.13
2023-03-28T18:41:20.242Z,101827.94
2023-03-28T18:43:47.738Z,101840.94
2023-03-28T18:46:16.167Z,101838.19
2023-03-28T18:48:44.954Z,101837.25
2023-03-28T18:51:12.166Z,101838.00
2023-03-28T18:53:39.261Z,101847.41
2023-03-28T18:56:08.547Z,101839.41
2023-03-28T18:58:39.257Z,101840.22
2023-03-28T19:03:41.829Z,101821.63
2023-03-28T19:06:12.724Z,101812.72
2023-03-28T19:08:40.449Z,101803.81
2023-03-28T19:11:12.484Z,101800.03
2023-03-28T19:13:41.183Z,101805.91
2023-03-28T19:16:18.995Z,101808.34
2023-03-28T19:18:47.425Z,101806.38
2023-03-28T19:21:16.706Z,101795.72
2023-03-28T19:23:44.240Z,101781.59
2023-03-28T19:26:13.531Z,101772.59
2023-03-28T19:28:42.337Z,101766.22
2023-03-28T19:31:12.788Z,101769.69
2023-03-28T19:33:43.399Z,101761.88
2023-03-28T19:36:11.609Z,101758.34
2023-03-28T19:38:39.940Z,101755.69
2023-03-28T19:41:22.282Z,101752.19
2023-03-28T19:43:51.199Z,101746.06
2023-03-28T19:46:32.582Z,101745.16
2023-03-28T19:49:05.651Z,101747.69
2023-03-28T19:51:33.514Z,101738.09
2023-03-28T19:54:01.066Z,101733.72
2023-03-28T19:56:28.651Z,101728.44
2023-03-28T19:58:56.019Z,101732.78
2023-03-28T20:01:23.122Z,101732.66
2023-03-28T20:03:53.277Z,101729.94
2023-03-28T20:06:23.235Z,101732.59
2023-03-28T20:08:50.939Z,101733.50
2023-03-28T20:11:18.395Z,101724.78
2023-03-28T20:13:45.539Z,101726.53
2023-03-28T20:16:14.046Z,101728.22
2023-03-28T20:18:41.717Z,101713.38
2023-03-28T20:21:12.088Z,101715.09
2023-03-28T20:23:40.157Z,101717.75
2023-03-28T20:26:18.552Z,101722.19
2023-03-28T20:28:52.170Z,101716.94
2023-03-28T20:31:19.809Z,101708.19
2023-03-28T20:33:47.134Z,101709.03
2023-03-28T20:36:15.053Z,101701.16
2023-03-28T20:38:42.132Z,101690.59
2023-03-28T20:41:14.882Z,101680.94
2023-03-28T20:43:50.305Z,101671.25
2023-03-28T20:46:19.398Z,101670.22
2023-03-28T20:48:56.960Z,101668.22
2023-03-28T20:51:26.067Z,101665.53
2023-03-28T20:53:59.802Z,101665.56
2023-03-28T20:56:30.513Z,101665.44
2023-03-28T20:58:59.062Z,101660.06
2023-03-28T21:01:30.038Z,101655.69
2023-03-28T21:03:59.945Z,101649.59
2023-03-28T21:06:34.880Z,101641.72
2023-03-28T21:09:13.391Z,101639.94
2023-03-28T21:11:41.465Z,101645.91
2023-03-28T21:14:12.541Z,101632.88
2023-03-28T21:16:40.929Z,101638.19
2023-03-28T21:19:09.043Z,101651.25
2023-03-28T21:21:36.594Z,101651.31
2023-03-28T21:24:04.850Z,101652.28
2023-03-28T21:26:32.832Z,101648.78
2023-03-28T21:29:00.164Z,101654.13
2023-03-28T21:31:29.526Z,101645.44
2023-03-28T21:33:58.968Z,101643.69
2023-03-28T21:36:28.049Z,101644.59
2023-03-28T21:38:56.477Z,101642.03
2023-03-28T21:41:24.263Z,101655.09
2023-03-28T21:43:53.817Z,101649.91
2023-03-28T21:46:22.251Z,101638.69
2023-03-28T21:48:49.994Z,101633.47
2023-03-28T21:51:18.069Z,101629.97
2023-03-28T21:53:46.223Z,101623.91
2023-03-28T21:56:14.529Z,101613.47
2023-03-28T21:58:42.208Z,101618.72
2023-03-28T22:01:14.311Z,101626.53
2023-03-28T22:03:41.773Z,101614.31
2023-03-28T22:06:10.440Z,101613.47
2023-03-28T22:08:38.806Z,101608.22
2023-03-28T22:11:17.709Z,101598.63
2023-03-28T22:13:47.508Z,101597.75
2023-03-28T22:16:16.329Z,101602.09
2023-03-28T22:18:50.062Z,101604.75
2023-03-28T22:21:17.447Z,101602.13
2023-03-28T22:23:47.507Z,101609.13
2023-03-28T22:26:16.104Z,101603.94
2023-03-28T22:28:43.411Z,101600.47
2023-03-28T22:31:11.036Z,101601.44
2023-03-28T22:33:38.227Z,101604.09
2023-03-28T22:36:06.189Z,101608.47
2023-03-28T22:38:33.354Z,101594.63
2023-03-28T22:41:00.643Z,101591.22
2023-03-28T22:43:29.844Z,101597.34
2023-03-28T22:45:57.039Z,101590.38
2023-03-28T22:48:24.137Z,101580.84
2023-03-28T22:50:51.448Z,101573.91
2023-03-28T22:53:22.715Z,101573.00
2023-03-28T22:55:49.907Z,101566.91
2023-03-28T22:58:17.702Z,101548.59
2023-03-28T23:00:44.955Z,101545.97
2023-03-28T23:03:12.319Z,101538.91
2023-03-28T23:05:41.190Z,101536.25
2023-03-28T23:08:10.044Z,101541.53
2023-03-28T23:10:37.433Z,101534.47
2023-03-28T23:13:04.821Z,101534.41
2023-03-28T23:15:32.338Z,101524.84
2023-03-28T23:17:59.448Z,101523.22
2023-03-28T23:20:26.637Z,101528.56
2023-03-28T23:22:53.829Z,101525.94
2023-03-28T23:25:22.435Z,101518.06
2023-03-28T23:27:49.665Z,101525.97
2023-03-28T23:30:17.089Z,101521.66
2023-03-28T23:32:44.287Z,101522.47
2023-03-28T23:35:12.092Z,101520.84
2023-03-28T23:37:40.143Z,101525.25
2023-03-28T23:40:16.466Z,101519.22
2023-03-28T23:42:44.768Z,101514.03
2023-03-28T23:45:14.046Z,101514.94
2023-03-28T23:47:41.944Z,101508.84
2023-03-28T23:50:10.183Z,101507.06
2023-03-28T23:52:37.356Z,101500.97
2023-03-28T23:55:07.897Z,101505.38
2023-03-28T23:57:35.923Z,101507.19
